createdAt,value
2022-10-09T00:08:47.149Z,11
2022-10-09T00:18:51.398Z,11
2022-10-09T00:28:57.142Z,9
2022-10-09T00:39:01.536Z,12
2022-10-09T00:49:07.947Z,14
2022-10-09T00:59:15.376Z,11
2022-10-09T01:09:20.385Z,10
2022-10-09T01:19:25.074Z,14
2022-10-09T01:29:32.876Z,14
2022-10-09T01:39:38.102Z,12
2022-10-09T01:49:44.813Z,15
2022-10-09T01:59:58.034Z,11
2022-10-09T02:09:58.645Z,13
2022-10-09T02:20:01.930Z,11
2022-10-09T02:30:07.538Z,16
2022-10-09T02:40:13.623Z,15
2022-10-09T02:50:20.150Z,8
2022-10-09T03:00:25.775Z,16
2022-10-09T03:10:31.476Z,15
2022-10-09T03:20:37.873Z,11
2022-10-09T03:30:42.420Z,10
2022-10-09T03:40:49.588Z,13
2022-10-09T03:50:53.605Z,19
2022-10-09T04:00:59.536Z,19
2022-10-09T04:11:04.660Z,18
2022-10-09T04:21:11.284Z,18
2022-10-09T04:31:17.457Z,20
2022-10-09T04:41:22.519Z,22
2022-10-09T04:51:28.347Z,20
2022-10-09T05:01:38.848Z,18
2022-10-09T05:11:43.375Z,18
2022-10-09T05:21:46.986Z,20
2022-10-09T05:31:52.532Z,17
2022-10-09T05:41:57.201Z,17
2022-10-09T05:52:03.049Z,17
2022-10-09T06:02:08.305Z,19
2022-10-09T06:12:11.199Z,17
2022-10-09T06:22:19.140Z,19
2022-10-09T06:32:23.782Z,15
2022-10-09T06:42:29.532Z,15
2022-10-09T06:52:35.145Z,15
2022-10-09T07:02:44.544Z,18
2022-10-09T07:12:47.930Z,20
2022-10-09T07:22:57.667Z,16
2022-10-09T07:32:58.015Z,15
2022-10-09T07:43:03.124Z,21
2022-10-09T07:53:08.805Z,16
2022-10-09T08:03:15.870Z,16
2022-10-09T08:13:22.012Z,16
2022-10-09T08:23:28.168Z,16
2022-10-09T08:33:34.368Z,14
2022-10-09T08:43:38.823Z,16
2022-10-09T08:53:45.093Z,18
2022-10-09T09:03:51.544Z,18
2022-10-09T09:13:57.017Z,17
2022-10-09T09:24:01.550Z,15
2022-10-09T09:34:15.710Z,18
2022-10-09T09:44:46.700Z,15
2022-10-09T09:55:18.839Z,17
2022-10-09T10:05:31.298Z,15
2022-10-09T10:15:32.164Z,19
2022-10-09T10:25:37.253Z,14
2022-10-09T10:35:43.725Z,15
2022-10-09T10:45:48.323Z,18
2022-10-09T10:55:53.517Z,16
2022-10-09T11:06:00.966Z,16
2022-10-09T11:16:07.991Z,15
2022-10-09T11:26:13.716Z,15
2022-10-09T11:36:20.320Z,11
2022-10-09T11:46:25.929Z,17
2022-10-09T11:56:32.793Z,14
2022-10-09T12:06:37.499Z,13
2022-10-09T12:16:44.375Z,15
2022-10-09T12:26:50.071Z,14
2022-10-09T12:36:56.005Z,15
2022-10-09T12:47:01.970Z,14
2022-10-09T12:57:08.718Z,13
2022-10-09T13:07:13.790Z,15
2022-10-09T13:17:18.973Z,15
2022-10-09T13:27:23.102Z,13
2022-10-09T13:37:30.295Z,17
2022-10-09T13:47:36.999Z,16
2022-10-09T13:57:42.650Z,17
2022-10-09T14:07:48.261Z,18
2022-10-09T14:17:53.685Z,16
2022-10-09T14:28:00.832Z,19
2022-10-09T14:38:28.226Z,19
2022-10-09T14:48:20.216Z,15
2022-10-09T14:58:26.414Z,16
2022-10-09T15:08:32.953Z,19
2022-10-09T15:18:39.576Z,19
2022-10-09T15:28:45.161Z,21
2022-10-09T15:38:50.118Z,20
2022-10-09T15:48:56.181Z,17
2022-10-09T15:59:02.328Z,18
2022-10-09T16:09:08.748Z,19
2022-10-09T16:19:15.269Z,21
2022-10-09T16:29:23.705Z,23
2022-10-09T16:39:29.778Z,19
2022-10-09T16:49:36.865Z,30
2022-10-09T16:59:41.991Z,19
2022-10-09T17:09:56.199Z,18
2022-10-09T17:19:56.204Z,17
2022-10-09T17:30:00.902Z,17
2022-10-09T17:40:06.173Z,22
2022-10-09T17:50:12.934Z,19
2022-10-09T18:00:22.395Z,17
2022-10-09T18:10:23.818Z,17
2022-10-09T18:20:29.668Z,17
2022-10-09T18:30:34.711Z,16
2022-10-09T18:40:46.053Z,17
2022-10-09T18:50:46.365Z,15
2022-10-09T19:00:51.506Z,17
2022-10-09T19:10:57.758Z,20
2022-10-09T19:21:03.588Z,20
2022-10-09T19:31:10.772Z,25
2022-10-09T19:41:16.323Z,18
2022-10-09T19:51:21.667Z,19
2022-10-09T20:01:28.156Z,17
2022-10-09T20:11:31.826Z,19
2022-10-09T20:21:37.568Z,18
2022-10-09T20:31:42.612Z,19
2022-10-09T20:41:48.914Z,18
2022-10-09T20:51:55.275Z,16
2022-10-09T21:02:02.211Z,16
2022-10-09T21:12:07.005Z,16
2022-10-09T21:22:12.019Z,19
2022-10-09T21:32:18.944Z,19
2022-10-09T21:42:26.371Z,22
2022-10-09T21:52:32.004Z,33
2022-10-09T22:02:38.832Z,29
2022-10-09T22:12:44.042Z,22
2022-10-09T22:22:53.642Z,19
2022-10-09T22:32:55.848Z,21
2022-10-09T22:43:01.652Z,18
2022-10-09T22:53:04.832Z,17
2022-10-09T23:03:09.196Z,19
2022-10-09T23:13:15.257Z,16
2022-10-09T23:23:22.149Z,19
2022-10-09T23:33:27.305Z,17
2022-10-09T23:43:34.143Z,17
2022-10-09T23:53:40.392Z,15
